Pagrindinis puslapis
METAR-TAF:

METAR-TAF

Oro uostai :

Corpus Christi-Kingsville, Teksasas, Jungtinės Amerikos Valstijos

platuma: 27-46-23N, ilguma: 097-30-46W, Aukštis: 13 m

Dabartinis oras

Ataskaita buvo paskelbta 39 minutes, ne 05:51 UTC
Vėjas 4 kt iš Pietų/Pietvakarių
Temperatūra 22°C
Drėgmė 100%
Slėgis 1013 hPa
Matomumas: 16.1 km
Mažai debesys ne aukštis 25000 ft

METAR: KCRP 270551Z 21004KT 10SM FEW250 22/22 A2992 RMK AO2 SLP131 T02170217 10306 20217 403110211 51013

Laikas: 01:30 (06:30 UTC)

Prognozė

Ataskaita buvo paskelbta 1 valandą ir 10 minutes, ne 05:20 UTC
Prognozė galioja nuo 27 metu 06 UTC su 28 metu 06 UTC
Vėjas 4 kt nuo kintamojo kryptimis
Matomumas: 10 km
Giedras dangus
Laikinai
nuo 27 metu 10 UTC su 27 metu 13 UTC
Matomumas: 8.0 km
rūkana
Nuo 27 metu 1400 UTC
Vėjas 10 kt iš Pietų
Matomumas: 10 km
Mažai debesys ne aukštis 25000 ft

TAF: KCRP 270520Z 2706/2806 VRB04KT P6SM SKC TEMPO 2710/2713 5SM BR FM271400 18010KT P6SM FEW250

Orai ataskaitas ir orų prognozės (METAR, TAF).

turimą stotys yra geltonos ir raudonos taškus žemėlapyje.

Perkelti pele per norėdami pamatyti stoties vardą.

Tada spustelėkite, norėdami matyti oro stebėjimo ir prognozės.

Norėdami pakeisti žemėlapį: spustelėkite ant žalios mygtukų su juodo kryžiaus žemyn,; žalią mygtuką su brūkšneliu, jei norite nutolinti; arba žalių rodyklių gretimoms žemėlapius.


METAR-TAF: